sensor_id;sensor_type;location;lat;lon;timestamp;pressure;altitude;pressure_sealevel;temperature;humidity
56040;BME280;43937;41.366;2.072;2024-02-14T00:00:57;101599.47;;;12.93;78.47
56040;BME280;43937;41.366;2.072;2024-02-14T00:03:23;101621.16;;;12.94;78.44
56040;BME280;43937;41.366;2.072;2024-02-14T00:05:49;101608.84;;;12.90;78.52
56040;BME280;43937;41.366;2.072;2024-02-14T00:08:14;101609.16;;;12.87;77.94
56040;BME280;43937;41.366;2.072;2024-02-14T00:10:40;101602.31;;;12.83;78.41
56040;BME280;43937;41.366;2.072;2024-02-14T00:13:05;101598.91;;;12.63;78.92
56040;BME280;43937;41.366;2.072;2024-02-14T00:15:31;101595.88;;;12.66;78.88
56040;BME280;43937;41.366;2.072;2024-02-14T00:17:56;101608.00;;;12.90;79.19
56040;BME280;43937;41.366;2.072;2024-02-14T00:20:22;101624.28;;;12.99;78.22
56040;BME280;43937;41.366;2.072;2024-02-14T00:22:47;101617.63;;;12.76;78.55
56040;BME280;43937;41.366;2.072;2024-02-14T00:25:13;101608.50;;;12.67;78.47
56040;BME280;43937;41.366;2.072;2024-02-14T00:27:39;101608.19;;;12.52;78.53
56040;BME280;43937;41.366;2.072;2024-02-14T00:30:06;101623.91;;;12.50;79.15
56040;BME280;43937;41.366;2.072;2024-02-14T00:32:32;101617.59;;;12.50;78.51
56040;BME280;43937;41.366;2.072;2024-02-14T00:34:58;101610.34;;;12.41;78.44
56040;BME280;43937;41.366;2.072;2024-02-14T00:37:24;101643.16;;;12.49;78.37
56040;BME280;43937;41.366;2.072;2024-02-14T00:39:49;101627.59;;;12.41;78.99
56040;BME280;43937;41.366;2.072;2024-02-14T00:42:17;101615.34;;;12.27;79.01
56040;BME280;43937;41.366;2.072;2024-02-14T00:44:42;101614.88;;;12.32;79.14
56040;BME280;43937;41.366;2.072;2024-02-14T00:47:38;101604.81;;;12.32;78.51
56040;BME280;43937;41.366;2.072;2024-02-14T00:50:04;101620.25;;;12.42;78.36
56040;BME280;43937;41.366;2.072;2024-02-14T00:52:29;101628.56;;;12.58;76.95
56040;BME280;43937;41.366;2.072;2024-02-14T00:54:55;101605.78;;;12.49;76.44
56040;BME280;43937;41.366;2.072;2024-02-14T00:57:21;101604.56;;;12.44;76.31
56040;BME280;43937;41.366;2.072;2024-02-14T00:59:53;101589.16;;;12.34;75.70
56040;BME280;43937;41.366;2.072;2024-02-14T01:02:21;101617.13;;;12.36;75.41
56040;BME280;43937;41.366;2.072;2024-02-14T01:04:47;101587.50;;;12.24;74.14
56040;BME280;43937;41.366;2.072;2024-02-14T01:07:12;101612.78;;;12.44;74.14
56040;BME280;43937;41.366;2.072;2024-02-14T01:09:38;101597.63;;;12.31;74.01
56040;BME280;43937;41.366;2.072;2024-02-14T01:12:03;101604.00;;;12.58;73.76
56040;BME280;43937;41.366;2.072;2024-02-14T01:14:30;101588.72;;;12.47;73.01
56040;BME280;43937;41.366;2.072;2024-02-14T01:16:56;101607.44;;;12.60;72.99
56040;BME280;43937;41.366;2.072;2024-02-14T01:19:21;101599.34;;;12.76;72.51
56040;BME280;43937;41.366;2.072;2024-02-14T01:21:49;101607.78;;;12.83;71.30
56040;BME280;43937;41.366;2.072;2024-02-14T01:24:15;101610.06;;;12.96;71.36
56040;BME280;43937;41.366;2.072;2024-02-14T01:26:41;101596.28;;;12.79;70.65
56040;BME280;43937;41.366;2.072;2024-02-14T01:29:07;101576.22;;;12.63;70.16
56040;BME280;43937;41.366;2.072;2024-02-14T01:31:35;101586.25;;;12.80;69.42
56040;BME280;43937;41.366;2.072;2024-02-14T01:34:01;101616.06;;;12.73;70.09
56040;BME280;43937;41.366;2.072;2024-02-14T01:36:29;101604.78;;;12.68;69.79
56040;BME280;43937;41.366;2.072;2024-02-14T01:38:54;101602.06;;;12.76;68.91
56040;BME280;43937;41.366;2.072;2024-02-14T01:41:20;101584.63;;;12.69;68.45
56040;BME280;43937;41.366;2.072;2024-02-14T01:43:47;101598.03;;;12.80;68.18
56040;BME280;43937;41.366;2.072;2024-02-14T01:46:12;101601.34;;;12.92;67.00
56040;BME280;43937;41.366;2.072;2024-02-14T01:48:39;101621.06;;;13.30;66.00
56040;BME280;43937;41.366;2.072;2024-02-14T01:51:05;101604.84;;;13.28;65.44
56040;BME280;43937;41.366;2.072;2024-02-14T01:53:34;101602.00;;;13.20;65.59
56040;BME280;43937;41.366;2.072;2024-02-14T01:56:02;101619.88;;;13.33;65.11
56040;BME280;43937;41.366;2.072;2024-02-14T01:58:30;101611.56;;;13.16;65.93
56040;BME280;43937;41.366;2.072;2024-02-14T02:00:56;101589.91;;;12.97;65.92
56040;BME280;43937;41.366;2.072;2024-02-14T02:03:25;101621.09;;;13.12;66.31
56040;BME280;43937;41.366;2.072;2024-02-14T02:05:53;101606.00;;;13.00;66.25
56040;BME280;43937;41.366;2.072;2024-02-14T02:08:19;101615.22;;;12.99;66.33
56040;BME280;43937;41.366;2.072;2024-02-14T02:10:45;101585.81;;;12.93;65.85
56040;BME280;43937;41.366;2.072;2024-02-14T02:13:11;101595.66;;;12.86;66.41
56040;BME280;43937;41.366;2.072;2024-02-14T02:15:36;101606.53;;;13.03;65.75
56040;BME280;43937;41.366;2.072;2024-02-14T02:18:03;101605.78;;;13.19;65.13
56040;BME280;43937;41.366;2.072;2024-02-14T02:20:31;101594.25;;;13.07;65.28
56040;BME280;43937;41.366;2.072;2024-02-14T02:22:58;101605.34;;;13.06;64.92
56040;BME280;43937;41.366;2.072;2024-02-14T02:25:24;101596.22;;;12.89;65.09
56040;BME280;43937;41.366;2.072;2024-02-14T02:27:51;101599.03;;;13.05;64.75
56040;BME280;43937;41.366;2.072;2024-02-14T02:30:17;101572.66;;;12.96;64.60
56040;BME280;43937;41.366;2.072;2024-02-14T02:32:42;101586.00;;;12.99;64.69
56040;BME280;43937;41.366;2.072;2024-02-14T02:35:08;101586.97;;;13.16;63.67
56040;BME280;43937;41.366;2.072;2024-02-14T02:37:35;101607.03;;;12.99;65.33
56040;BME280;43937;41.366;2.072;2024-02-14T02:40:00;101596.41;;;12.96;64.91
56040;BME280;43937;41.366;2.072;2024-02-14T02:42:26;101609.91;;;12.97;64.66
56040;BME280;43937;41.366;2.072;2024-02-14T02:44:51;101612.50;;;12.99;64.92
56040;BME280;43937;41.366;2.072;2024-02-14T02:47:17;101604.22;;;12.91;65.40
56040;BME280;43937;41.366;2.072;2024-02-14T02:49:45;101593.97;;;12.67;65.43
56040;BME280;43937;41.366;2.072;2024-02-14T02:52:11;101613.97;;;12.93;65.31
56040;BME280;43937;41.366;2.072;2024-02-14T02:54:37;101612.28;;;12.92;65.37
56040;BME280;43937;41.366;2.072;2024-02-14T02:57:06;101594.47;;;12.62;66.32
56040;BME280;43937;41.366;2.072;2024-02-14T02:59:32;101592.09;;;12.67;65.76
56040;BME280;43937;41.366;2.072;2024-02-14T03:01:57;101590.09;;;12.69;65.86
56040;BME280;43937;41.366;2.072;2024-02-14T03:04:24;101607.72;;;12.75;65.41
56040;BME280;43937;41.366;2.072;2024-02-14T03:06:49;101582.81;;;12.78;65.75
56040;BME280;43937;41.366;2.072;2024-02-14T03:09:15;101604.94;;;12.93;65.39
56040;BME280;43937;41.366;2.072;2024-02-14T03:11:46;101581.44;;;12.82;65.13
56040;BME280;43937;41.366;2.072;2024-02-14T03:14:11;101575.53;;;12.87;65.10
56040;BME280;43937;41.366;2.072;2024-02-14T03:16:37;101588.81;;;12.81;65.19
56040;BME280;43937;41.366;2.072;2024-02-14T03:19:02;101598.22;;;12.87;65.40
56040;BME280;43937;41.366;2.072;2024-02-14T03:21:30;101596.56;;;12.68;65.63
56040;BME280;43937;41.366;2.072;2024-02-14T03:23:57;101582.91;;;12.68;65.04
56040;BME280;43937;41.366;2.072;2024-02-14T03:26:22;101590.09;;;12.69;65.22
56040;BME280;43937;41.366;2.072;2024-02-14T03:28:48;101593.53;;;12.71;64.93
56040;BME280;43937;41.366;2.072;2024-02-14T03:31:14;101602.97;;;12.77;64.48
56040;BME280;43937;41.366;2.072;2024-02-14T03:33:41;101591.25;;;12.67;65.02
56040;BME280;43937;41.366;2.072;2024-02-14T03:36:06;101598.34;;;12.77;64.48
56040;BME280;43937;41.366;2.072;2024-02-14T03:38:32;101592.81;;;12.69;64.47
56040;BME280;43937;41.366;2.072;2024-02-14T03:40:58;101585.38;;;12.53;65.09
56040;BME280;43937;41.366;2.072;2024-02-14T03:43:23;101592.50;;;12.72;64.56
56040;BME280;43937;41.366;2.072;2024-02-14T03:45:49;101609.81;;;12.81;64.17
56040;BME280;43937;41.366;2.072;2024-02-14T03:48:15;101611.19;;;12.59;65.01
56040;BME280;43937;41.366;2.072;2024-02-14T03:50:41;101611.50;;;12.82;64.04
56040;BME280;43937;41.366;2.072;2024-02-14T03:53:08;101601.75;;;12.79;63.91
56040;BME280;43937;41.366;2.072;2024-02-14T03:55:39;101583.81;;;12.51;64.49
56040;BME280;43937;41.366;2.072;2024-02-14T03:58:04;101598.81;;;12.47;64.67
56040;BME280;43937;41.366;2.072;2024-02-14T04:00:31;101595.28;;;12.36;65.49
56040;BME280;43937;41.366;2.072;2024-02-14T04:02:57;101610.97;;;12.78;64.03
56040;BME280;43937;41.366;2.072;2024-02-14T04:05:25;101592.00;;;12.51;64.96
56040;BME280;43937;41.366;2.072;2024-02-14T04:07:53;101606.63;;;12.68;64.66
56040;BME280;43937;41.366;2.072;2024-02-14T04:10:20;101607.22;;;12.53;65.06
56040;BME280;43937;41.366;2.072;2024-02-14T04:12:46;101601.88;;;12.52;64.50
56040;BME280;43937;41.366;2.072;2024-02-14T04:15:11;101610.69;;;12.64;63.95
56040;BME280;43937;41.366;2.072;2024-02-14T04:17:38;101608.66;;;12.66;64.04
56040;BME280;43937;41.366;2.072;2024-02-14T04:20:03;101612.34;;;12.56;64.24
56040;BME280;43937;41.366;2.072;2024-02-14T04:22:30;101608.81;;;12.64;64.11
56040;BME280;43937;41.366;2.072;2024-02-14T04:24:55;101599.47;;;12.49;64.03
56040;BME280;43937;41.366;2.072;2024-02-14T04:27:21;101622.09;;;12.59;63.83
56040;BME280;43937;41.366;2.072;2024-02-14T04:29:47;101607.00;;;12.47;63.97
56040;BME280;43937;41.366;2.072;2024-02-14T04:32:13;101618.88;;;12.64;63.85
56040;BME280;43937;41.366;2.072;2024-02-14T04:34:39;101612.13;;;12.50;63.83
56040;BME280;43937;41.366;2.072;2024-02-14T04:37:05;101619.75;;;12.64;63.51
56040;BME280;43937;41.366;2.072;2024-02-14T04:39:36;101628.97;;;12.63;64.19
56040;BME280;43937;41.366;2.072;2024-02-14T04:42:02;101626.94;;;12.65;63.78
56040;BME280;43937;41.366;2.072;2024-02-14T04:44:28;101601.47;;;12.65;63.79
56040;BME280;43937;41.366;2.072;2024-02-14T04:46:54;101618.16;;;12.79;63.20
56040;BME280;43937;41.366;2.072;2024-02-14T04:49:19;101622.63;;;12.80;63.06
56040;BME280;43937;41.366;2.072;2024-02-14T04:51:45;101631.75;;;12.97;62.83
56040;BME280;43937;41.366;2.072;2024-02-14T04:54:10;101629.66;;;12.91;62.38
56040;BME280;43937;41.366;2.072;2024-02-14T04:56:36;101626.63;;;12.94;62.53
56040;BME280;43937;41.366;2.072;2024-02-14T04:59:01;101619.56;;;12.83;62.56
56040;BME280;43937;41.366;2.072;2024-02-14T05:01:27;101631.88;;;12.88;62.70
56040;BME280;43937;41.366;2.072;2024-02-14T05:03:52;101616.13;;;12.81;62.69
56040;BME280;43937;41.366;2.072;2024-02-14T05:06:18;101632.50;;;12.81;62.83
56040;BME280;43937;41.366;2.072;2024-02-14T05:08:43;101630.34;;;12.67;63.48
56040;BME280;43937;41.366;2.072;2024-02-14T05:11:08;101621.47;;;12.65;62.97
56040;BME280;43937;41.366;2.072;2024-02-14T05:13:34;101627.41;;;12.43;63.25
56040;BME280;43937;41.366;2.072;2024-02-14T05:16:04;101618.84;;;12.37;63.29
56040;BME280;43937;41.366;2.072;2024-02-14T05:18:29;101618.47;;;12.14;63.83
56040;BME280;43937;41.366;2.072;2024-02-14T05:20:55;101621.63;;;12.46;63.22
56040;BME280;43937;41.366;2.072;2024-02-14T05:23:21;101616.03;;;12.11;63.97
56040;BME280;43937;41.366;2.072;2024-02-14T05:25:46;101618.38;;;12.24;63.23
56040;BME280;43937;41.366;2.072;2024-02-14T05:28:12;101626.78;;;12.13;63.94
56040;BME280;43937;41.366;2.072;2024-02-14T05:30:43;101619.16;;;12.17;63.62
56040;BME280;43937;41.366;2.072;2024-02-14T05:33:08;101637.78;;;12.39;64.07
56040;BME280;43937;41.366;2.072;2024-02-14T05:35:33;101611.53;;;12.38;63.50
56040;BME280;43937;41.366;2.072;2024-02-14T05:37:59;101643.75;;;12.78;61.93
56040;BME280;43937;41.366;2.072;2024-02-14T05:40:24;101638.94;;;12.72;62.12
56040;BME280;43937;41.366;2.072;2024-02-14T05:42:50;101652.28;;;12.75;62.25
56040;BME280;43937;41.366;2.072;2024-02-14T05:45:16;101635.09;;;12.83;61.34
56040;BME280;43937;41.366;2.072;2024-02-14T05:47:42;101648.69;;;13.01;60.76
56040;BME280;43937;41.366;2.072;2024-02-14T05:50:08;101663.28;;;12.83;61.69
56040;BME280;43937;41.366;2.072;2024-02-14T05:52:34;101642.44;;;12.65;61.62
56040;BME280;43937;41.366;2.072;2024-02-14T05:54:59;101644.59;;;12.53;62.11
56040;BME280;43937;41.366;2.072;2024-02-14T05:57:25;101647.53;;;12.59;61.78
56040;BME280;43937;41.366;2.072;2024-02-14T05:59:51;101642.53;;;12.55;62.84
56040;BME280;43937;41.366;2.072;2024-02-14T06:02:16;101649.03;;;12.54;62.90
56040;BME280;43937;41.366;2.072;2024-02-14T06:04:42;101639.28;;;12.33;63.27
56040;BME280;43937;41.366;2.072;2024-02-14T06:07:08;101657.75;;;12.40;63.00
56040;BME280;43937;41.366;2.072;2024-02-14T06:09:35;101631.25;;;12.14;63.21
56040;BME280;43937;41.366;2.072;2024-02-14T06:12:00;101620.72;;;12.19;62.69
56040;BME280;43937;41.366;2.072;2024-02-14T06:14:26;101645.75;;;12.50;62.46
56040;BME280;43937;41.366;2.072;2024-02-14T06:16:51;101651.19;;;12.68;62.04
56040;BME280;43937;41.366;2.072;2024-02-14T06:19:17;101667.41;;;12.88;61.37
56040;BME280;43937;41.366;2.072;2024-02-14T06:21:42;101652.34;;;12.83;61.45
56040;BME280;43937;41.366;2.072;2024-02-14T06:24:08;101669.41;;;12.86;61.85
56040;BME280;43937;41.366;2.072;2024-02-14T06:26:35;101679.47;;;13.03;60.83
56040;BME280;43937;41.366;2.072;2024-02-14T06:29:01;101666.91;;;13.18;60.80
56040;BME280;43937;41.366;2.072;2024-02-14T06:31:27;101648.66;;;12.93;60.12
56040;BME280;43937;41.366;2.072;2024-02-14T06:33:52;101651.81;;;12.80;60.27
56040;BME280;43937;41.366;2.072;2024-02-14T06:36:18;101649.13;;;12.88;59.71
56040;BME280;43937;41.366;2.072;2024-02-14T06:38:43;101641.81;;;12.71;59.99
56040;BME280;43937;41.366;2.072;2024-02-14T06:41:11;101659.47;;;12.58;60.67
56040;BME280;43937;41.366;2.072;2024-02-14T06:43:37;101654.88;;;12.59;60.88
56040;BME280;43937;41.366;2.072;2024-02-14T06:46:05;101640.50;;;12.57;60.12
56040;BME280;43937;41.366;2.072;2024-02-14T06:48:31;101653.63;;;12.53;60.58
56040;BME280;43937;41.366;2.072;2024-02-14T06:50:57;101654.81;;;12.51;60.63
56040;BME280;43937;41.366;2.072;2024-02-14T06:53:22;101673.28;;;12.57;60.29
56040;BME280;43937;41.366;2.072;2024-02-14T06:55:47;101676.47;;;12.70;60.16
56040;BME280;43937;41.366;2.072;2024-02-14T06:58:13;101686.22;;;12.91;59.44
56040;BME280;43937;41.366;2.072;2024-02-14T07:00:38;101677.16;;;12.90;59.75
56040;BME280;43937;41.366;2.072;2024-02-14T07:03:04;101642.81;;;12.88;59.35
56040;BME280;43937;41.366;2.072;2024-02-14T07:05:30;101666.50;;;13.05;59.25
56040;BME280;43937;41.366;2.072;2024-02-14T07:07:56;101690.84;;;13.42;58.34
56040;BME280;43937;41.366;2.072;2024-02-14T07:10:21;101696.31;;;13.77;57.63
56040;BME280;43937;41.366;2.072;2024-02-14T07:12:47;101677.97;;;13.61;57.06
56040;BME280;43937;41.366;2.072;2024-02-14T07:15:12;101674.81;;;13.82;57.38
56040;BME280;43937;41.366;2.072;2024-02-14T07:17:38;101684.69;;;14.17;56.32
56040;BME280;43937;41.366;2.072;2024-02-14T07:20:05;101664.28;;;14.11;56.23
56040;BME280;43937;41.366;2.072;2024-02-14T07:22:31;101675.66;;;14.49;56.30
56040;BME280;43937;41.366;2.072;2024-02-14T07:24:56;101689.03;;;14.52;56.35
56040;BME280;43937;41.366;2.072;2024-02-14T07:27:22;101683.75;;;14.75;55.92
56040;BME280;43937;41.366;2.072;2024-02-14T07:29:49;101663.03;;;14.73;56.12
56040;BME280;43937;41.366;2.072;2024-02-14T07:32:14;101662.00;;;14.82;55.75
56040;BME280;43937;41.366;2.072;2024-02-14T07:34:40;101694.03;;;15.14;55.64
56040;BME280;43937;41.366;2.072;2024-02-14T07:37:06;101689.38;;;15.15;55.62
56040;BME280;43937;41.366;2.072;2024-02-14T07:39:32;101695.56;;;15.08;55.98
56040;BME280;43937;41.366;2.072;2024-02-14T07:42:00;101666.09;;;14.94;56.18
56040;BME280;43937;41.366;2.072;2024-02-14T07:44:25;101669.84;;;15.09;55.66
56040;BME280;43937;41.366;2.072;2024-02-14T07:46:51;101686.94;;;15.28;55.10
56040;BME280;43937;41.366;2.072;2024-02-14T07:49:17;101694.16;;;15.37;54.98
56040;BME280;43937;41.366;2.072;2024-02-14T07:51:43;101702.06;;;15.32;54.81
56040;BME280;43937;41.366;2.072;2024-02-14T07:54:09;101712.19;;;15.07;54.72
56040;BME280;43937;41.366;2.072;2024-02-14T07:56:34;101718.69;;;15.06;55.14
56040;BME280;43937;41.366;2.072;2024-02-14T07:59:00;101710.97;;;15.09;54.56
56040;BME280;43937;41.366;2.072;2024-02-14T08:01:25;101714.25;;;15.13;54.08
56040;BME280;43937;41.366;2.072;2024-02-14T08:03:51;101706.38;;;15.02;54.76
56040;BME280;43937;41.366;2.072;2024-02-14T08:06:17;101713.38;;;15.29;54.53
56040;BME280;43937;41.366;2.072;2024-02-14T08:08:42;101704.94;;;15.39;54.71
56040;BME280;43937;41.366;2.072;2024-02-14T08:11:09;101712.63;;;15.51;54.15
56040;BME280;43937;41.366;2.072;2024-02-14T08:13:34;101716.75;;;15.55;53.13
56040;BME280;43937;41.366;2.072;2024-02-14T08:16:00;101722.41;;;15.46;53.02
56040;BME280;43937;41.366;2.072;2024-02-14T08:18:25;101716.72;;;15.72;51.83
56040;BME280;43937;41.366;2.072;2024-02-14T08:20:53;101721.75;;;15.99;50.96
56040;BME280;43937;41.366;2.072;2024-02-14T08:23:18;101731.03;;;18.34;45.77
56040;BME280;43937;41.366;2.072;2024-02-14T08:25:45;101731.06;;;20.72;40.61
56040;BME280;43937;41.366;2.072;2024-02-14T08:28:11;101722.09;;;21.89;37.91
56040;BME280;43937;41.366;2.072;2024-02-14T08:30:37;101723.09;;;22.98;35.29
56040;BME280;43937;41.366;2.072;2024-02-14T08:33:03;101735.72;;;23.44;34.38
56040;BME280;43937;41.366;2.072;2024-02-14T08:35:29;101729.91;;;24.26;32.91
56040;BME280;43937;41.366;2.072;2024-02-14T08:37:54;101754.56;;;24.41;33.16
56040;BME280;43937;41.366;2.072;2024-02-14T08:40:20;101747.97;;;25.14;31.79
56040;BME280;43937;41.366;2.072;2024-02-14T08:42:46;101759.25;;;25.19;31.48
56040;BME280;43937;41.366;2.072;2024-02-14T08:45:11;101756.41;;;26.48;30.08
56040;BME280;43937;41.366;2.072;2024-02-14T08:47:37;101766.00;;;26.53;29.93
56040;BME280;43937;41.366;2.072;2024-02-14T08:50:05;101767.63;;;26.94;29.12
56040;BME280;43937;41.366;2.072;2024-02-14T08:52:31;101737.91;;;26.19;30.13
56040;BME280;43937;41.366;2.072;2024-02-14T08:54:57;101729.97;;;24.56;31.46
56040;BME280;43937;41.366;2.072;2024-02-14T08:57:24;101732.94;;;24.25;32.33
56040;BME280;43937;41.366;2.072;2024-02-14T08:59:51;101758.31;;;23.54;33.86
56040;BME280;43937;41.366;2.072;2024-02-14T09:02:17;101753.03;;;24.27;32.91
56040;BME280;43937;41.366;2.072;2024-02-14T09:04:42;101746.16;;;24.11;33.29
56040;BME280;43937;41.366;2.072;2024-02-14T09:07:09;101751.56;;;23.19;34.41
56040;BME280;43937;41.366;2.072;2024-02-14T09:09:34;101774.13;;;21.87;37.05
56040;BME280;43937;41.366;2.072;2024-02-14T09:12:00;101773.03;;;20.27;40.23
56040;BME280;43937;41.366;2.072;2024-02-14T09:14:28;101765.88;;;19.98;40.78
56040;BME280;43937;41.366;2.072;2024-02-14T09:16:54;101753.56;;;19.16;42.39
56040;BME280;43937;41.366;2.072;2024-02-14T09:19:20;101755.34;;;18.66;43.46
56040;BME280;43937;41.366;2.072;2024-02-14T09:21:46;101763.97;;;18.42;44.42
56040;BME280;43937;41.366;2.072;2024-02-14T09:24:12;101763.91;;;18.35;44.47
56040;BME280;43937;41.366;2.072;2024-02-14T09:26:38;101748.06;;;18.22;44.92
56040;BME280;43937;41.366;2.072;2024-02-14T09:29:04;101750.47;;;18.47;44.49
56040;BME280;43937;41.366;2.072;2024-02-14T09:31:30;101767.06;;;18.68;45.86
56040;BME280;43937;41.366;2.072;2024-02-14T09:33:55;101684.09;;;18.27;44.55
56040;BME280;43937;41.366;2.072;2024-02-14T09:36:23;101779.47;;;19.15;45.12
56040;BME280;43937;41.366;2.072;2024-02-14T09:38:49;101780.38;;;19.22;43.92
56040;BME280;43937;41.366;2.072;2024-02-14T09:41:21;101759.47;;;19.13;43.67
56040;BME280;43937;41.366;2.072;2024-02-14T09:43:47;101777.31;;;19.39;44.06
56040;BME280;43937;41.366;2.072;2024-02-14T09:46:13;101767.59;;;19.43;43.71
56040;BME280;43937;41.366;2.072;2024-02-14T09:48:42;101779.66;;;19.42;43.75
56040;BME280;43937;41.366;2.072;2024-02-14T09:51:09;101780.06;;;19.39;43.83
56040;BME280;43937;41.366;2.072;2024-02-14T09:53:34;101757.13;;;19.10;44.58
56040;BME280;43937;41.366;2.072;2024-02-14T09:56:02;101779.19;;;19.10;44.67
56040;BME280;43937;41.366;2.072;2024-02-14T09:58:27;101756.72;;;18.92;44.68
56040;BME280;43937;41.366;2.072;2024-02-14T10:00:59;101741.41;;;18.89;44.67
56040;BME280;43937;41.366;2.072;2024-02-14T10:03:25;101777.16;;;19.19;44.91
56040;BME280;43937;41.366;2.072;2024-02-14T10:05:51;101772.81;;;19.31;44.68
56040;BME280;43937;41.366;2.072;2024-02-14T10:08:18;101762.97;;;19.50;44.56
56040;BME280;43937;41.366;2.072;2024-02-14T10:10:44;101748.91;;;19.45;44.60
56040;BME280;43937;41.366;2.072;2024-02-14T10:13:09;101750.19;;;19.71;44.07
56040;BME280;43937;41.366;2.072;2024-02-14T10:15:35;101748.06;;;20.07;43.58
56040;BME280;43937;41.366;2.072;2024-02-14T10:18:02;101761.06;;;20.13;43.40
56040;BME280;43937;41.366;2.072;2024-02-14T10:20:28;101760.06;;;20.28;42.95
56040;BME280;43937;41.366;2.072;2024-02-14T10:23:02;101726.88;;;20.21;43.11
56040;BME280;43937;41.366;2.072;2024-02-14T10:25:29;101748.09;;;20.21;43.37
56040;BME280;43937;41.366;2.072;2024-02-14T10:27:54;101753.72;;;20.34;43.49
56040;BME280;43937;41.366;2.072;2024-02-14T10:30:20;101759.72;;;20.51;43.32
56040;BME280;43937;41.366;2.072;2024-02-14T10:32:47;101764.41;;;20.50;43.40
56040;BME280;43937;41.366;2.072;2024-02-14T10:35:15;101747.63;;;20.52;43.23
56040;BME280;43937;41.366;2.072;2024-02-14T10:37:42;101753.88;;;20.74;43.19
56040;BME280;43937;41.366;2.072;2024-02-14T10:40:08;101748.16;;;20.82;43.05
56040;BME280;43937;41.366;2.072;2024-02-14T10:42:34;101738.38;;;21.26;42.43
56040;BME280;43937;41.366;2.072;2024-02-14T10:45:01;101751.59;;;21.44;42.03
56040;BME280;43937;41.366;2.072;2024-02-14T10:47:36;101746.66;;;21.33;42.22
56040;BME280;43937;41.366;2.072;2024-02-14T10:50:05;101735.41;;;21.47;42.13
56040;BME280;43937;41.366;2.072;2024-02-14T10:52:33;101737.31;;;21.47;41.42
56040;BME280;43937;41.366;2.072;2024-02-14T10:55:02;101743.50;;;21.56;42.13
56040;BME280;43937;41.366;2.072;2024-02-14T10:57:29;101739.44;;;21.65;41.24
56040;BME280;43937;41.366;2.072;2024-02-14T11:00:01;101756.38;;;22.08;40.67
56040;BME280;43937;41.366;2.072;2024-02-14T11:02:27;101726.97;;;22.01;40.66
56040;BME280;43937;41.366;2.072;2024-02-14T11:04:58;101748.31;;;22.58;40.17
56040;BME280;43937;41.366;2.072;2024-02-14T11:07:28;101727.75;;;22.14;40.41
56040;BME280;43937;41.366;2.072;2024-02-14T11:10:09;101745.56;;;22.52;39.78
56040;BME280;43937;41.366;2.072;2024-02-14T11:12:39;101729.81;;;22.46;39.20
56040;BME280;43937;41.366;2.072;2024-02-14T11:17:39;101722.25;;;22.08;40.44
56040;BME280;43937;41.366;2.072;2024-02-14T11:20:15;101748.38;;;22.45;39.47
56040;BME280;43937;41.366;2.072;2024-02-14T11:22:50;101736.16;;;22.53;39.57
56040;BME280;43937;41.366;2.072;2024-02-14T11:25:17;101734.56;;;22.70;38.88
56040;BME280;43937;41.366;2.072;2024-02-14T11:27:46;101711.22;;;22.78;38.82
56040;BME280;43937;41.366;2.072;2024-02-14T11:30:12;101728.88;;;22.90;39.17
56040;BME280;43937;41.366;2.072;2024-02-14T11:32:40;101695.16;;;22.86;38.61
56040;BME280;43937;41.366;2.072;2024-02-14T11:35:11;101687.53;;;22.82;38.47
56040;BME280;43937;41.366;2.072;2024-02-14T11:37:36;101703.31;;;23.13;39.00
56040;BME280;43937;41.366;2.072;2024-02-14T11:40:02;101708.88;;;23.13;38.47
56040;BME280;43937;41.366;2.072;2024-02-14T11:42:28;101694.47;;;22.98;39.86
56040;BME280;43937;41.366;2.072;2024-02-14T11:44:53;101694.72;;;23.21;38.89
56040;BME280;43937;41.366;2.072;2024-02-14T11:47:22;101702.00;;;23.41;38.58
56040;BME280;43937;41.366;2.072;2024-02-14T11:49:48;101667.91;;;23.52;38.60
56040;BME280;43937;41.366;2.072;2024-02-14T11:52:13;101692.25;;;23.75;38.47
56040;BME280;43937;41.366;2.072;2024-02-14T11:54:39;101681.19;;;23.87;38.64
56040;BME280;43937;41.366;2.072;2024-02-14T11:57:05;101673.94;;;23.86;38.63
56040;BME280;43937;41.366;2.072;2024-02-14T11:59:34;101639.66;;;23.55;39.38
56040;BME280;43937;41.366;2.072;2024-02-14T12:01:59;101680.59;;;24.03;38.60
56040;BME280;43937;41.366;2.072;2024-02-14T12:04:25;101662.81;;;23.67;40.09
56040;BME280;43937;41.366;2.072;2024-02-14T12:06:51;101676.63;;;24.11;39.83
56040;BME280;43937;41.366;2.072;2024-02-14T12:09:16;101669.78;;;23.76;40.10
56040;BME280;43937;41.366;2.072;2024-02-14T12:11:42;101646.13;;;23.30;41.34
56040;BME280;43937;41.366;2.072;2024-02-14T12:14:11;101673.88;;;23.74;42.43
56040;BME280;43937;41.366;2.072;2024-02-14T12:16:37;101666.13;;;23.58;43.35
56040;BME280;43937;41.366;2.072;2024-02-14T12:21:35;101663.69;;;23.24;43.79
56040;BME280;43937;41.366;2.072;2024-02-14T12:24:03;101650.13;;;23.35;43.86
56040;BME280;43937;41.366;2.072;2024-02-14T12:26:30;101634.06;;;23.18;43.17
56040;BME280;43937;41.366;2.072;2024-02-14T12:28:56;101630.97;;;22.76;43.80
56040;BME280;43937;41.366;2.072;2024-02-14T12:31:23;101641.13;;;22.89;44.00
56040;BME280;43937;41.366;2.072;2024-02-14T12:33:49;101646.59;;;22.71;44.74
56040;BME280;43937;41.366;2.072;2024-02-14T12:36:14;101634.59;;;22.77;45.24
56040;BME280;43937;41.366;2.072;2024-02-14T12:38:40;101618.50;;;22.85;45.35
56040;BME280;43937;41.366;2.072;2024-02-14T12:41:06;101636.72;;;23.06;44.85
56040;BME280;43937;41.366;2.072;2024-02-14T12:43:31;101615.22;;;22.70;46.64
56040;BME280;43937;41.366;2.072;2024-02-14T12:45:56;101624.53;;;22.57;47.35
56040;BME280;43937;41.366;2.072;2024-02-14T12:48:24;101634.75;;;22.25;47.94
56040;BME280;43937;41.366;2.072;2024-02-14T12:50:53;101623.22;;;22.28;48.08